createdAt,value
2018-12-15T00:00:33.834Z,15.43
2018-12-15T00:01:37.527Z,15.48
2018-12-15T00:02:41.166Z,16.02
2018-12-15T00:03:44.905Z,15.43
2018-12-15T00:04:48.670Z,14.63
2018-12-15T00:05:52.395Z,15.53
2018-12-15T00:06:56.012Z,15.65
2018-12-15T00:07:59.707Z,15.63
2018-12-15T00:09:05.053Z,14.98
2018-12-15T00:10:08.762Z,14.80
2018-12-15T00:11:12.449Z,15.40
2018-12-15T00:12:16.130Z,15.10
2018-12-15T00:13:19.842Z,13.98
2018-12-15T00:14:23.505Z,15.95
2018-12-15T00:15:27.272Z,15.00
2018-12-15T00:16:31.073Z,15.95
2018-12-15T00:17:34.737Z,14.93
2018-12-15T00:18:38.496Z,16.02
2018-12-15T00:19:42.105Z,15.10
2018-12-15T00:20:45.758Z,13.83
2018-12-15T00:21:49.381Z,13.62
2018-12-15T00:22:53.077Z,15.58
2018-12-15T00:23:56.710Z,14.30
2018-12-15T00:25:00.400Z,15.10
2018-12-15T00:26:04.113Z,14.30
2018-12-15T00:27:07.788Z,15.53
2018-12-15T00:28:11.357Z,14.65
2018-12-15T00:29:15.101Z,15.13
2018-12-15T00:30:18.817Z,14.83
2018-12-15T00:31:22.517Z,15.23
2018-12-15T00:32:26.161Z,13.35
2018-12-15T00:33:29.769Z,15.90
2018-12-15T00:34:33.381Z,13.98
2018-12-15T00:35:37.004Z,15.13
2018-12-15T00:36:40.688Z,14.55
2018-12-15T00:37:44.576Z,15.20
2018-12-15T00:38:48.193Z,15.65
2018-12-15T00:39:51.905Z,14.55
2018-12-15T00:40:55.509Z,14.98
2018-12-15T00:41:59.176Z,15.32
2018-12-15T00:43:02.834Z,13.78
2018-12-15T00:44:06.448Z,14.55
2018-12-15T00:45:10.217Z,14.55
2018-12-15T00:46:13.893Z,14.30
2018-12-15T00:47:17.583Z,13.85
2018-12-15T00:48:21.193Z,16.82
2018-12-15T00:49:24.911Z,18.15
2018-12-15T00:50:28.590Z,15.58
2018-12-15T00:51:32.310Z,15.65
2018-12-15T00:52:35.945Z,14.07
2018-12-15T00:53:39.560Z,14.70
2018-12-15T00:54:43.260Z,13.72
2018-12-15T00:55:46.880Z,14.60
2018-12-15T00:56:50.561Z,14.73
2018-12-15T00:57:54.257Z,14.35
2018-12-15T00:58:57.986Z,13.93
2018-12-15T01:00:01.678Z,15.58
2018-12-15T01:01:05.413Z,14.75
2018-12-15T01:02:09.177Z,14.20
2018-12-15T01:03:12.881Z,14.15
2018-12-15T01:04:16.510Z,14.03
2018-12-15T01:05:20.218Z,14.43
2018-12-15T01:06:24.187Z,15.03
2018-12-15T01:07:27.833Z,14.80
2018-12-15T01:08:31.691Z,14.83
2018-12-15T01:09:35.398Z,14.63
2018-12-15T01:10:39.021Z,14.65
2018-12-15T01:11:42.719Z,14.45
2018-12-15T01:12:46.346Z,15.03
2018-12-15T01:13:50.110Z,14.18
2018-12-15T01:14:53.791Z,15.05
2018-12-15T01:15:57.513Z,14.55
2018-12-15T01:17:01.149Z,14.93
2018-12-15T01:18:04.905Z,13.58
2018-12-15T01:19:08.546Z,14.98
2018-12-15T01:20:12.279Z,13.93
2018-12-15T01:21:15.969Z,14.07
2018-12-15T01:22:19.605Z,14.83
2018-12-15T01:23:23.306Z,13.80
2018-12-15T01:24:26.938Z,14.10
2018-12-15T01:25:30.653Z,13.85
2018-12-15T01:26:34.270Z,15.25
2018-12-15T01:27:37.905Z,13.95
2018-12-15T01:28:41.588Z,14.03
2018-12-15T01:29:45.281Z,14.28
2018-12-15T01:30:48.929Z,14.35
2018-12-15T01:31:52.548Z,14.45
2018-12-15T01:32:56.164Z,14.83
2018-12-15T01:33:59.774Z,15.30
2018-12-15T01:35:03.514Z,14.20
2018-12-15T01:36:07.306Z,14.33
2018-12-15T01:37:10.997Z,14.20
2018-12-15T01:38:14.631Z,14.95
2018-12-15T01:39:19.692Z,14.93
2018-12-15T01:40:23.517Z,15.30
2018-12-15T01:41:27.126Z,14.28
2018-12-15T01:42:30.814Z,14.87
2018-12-15T01:43:34.496Z,14.33
2018-12-15T01:44:38.197Z,14.33
2018-12-15T01:45:41.886Z,13.98
2018-12-15T01:46:45.561Z,14.45
2018-12-15T01:47:49.237Z,14.78
2018-12-15T01:48:52.857Z,12.95
2018-12-15T01:49:56.466Z,13.53
2018-12-15T01:51:00.436Z,13.93
2018-12-15T01:52:04.138Z,14.87
2018-12-15T01:53:07.815Z,14.00
2018-12-15T01:54:11.511Z,13.72
2018-12-15T01:55:15.126Z,14.80
2018-12-15T01:56:18.782Z,13.53
2018-12-15T01:57:22.463Z,13.98
2018-12-15T01:58:26.158Z,14.38
2018-12-15T01:59:29.769Z,14.10
2018-12-15T02:00:33.531Z,14.13
2018-12-15T02:01:37.137Z,13.95
2018-12-15T02:02:41.213Z,13.43
2018-12-15T02:03:44.847Z,14.25
2018-12-15T02:04:48.586Z,13.75
2018-12-15T02:05:52.225Z,14.60
2018-12-15T02:06:55.838Z,14.30
2018-12-15T02:07:59.625Z,13.62
2018-12-15T02:09:04.468Z,15.08
2018-12-15T02:10:08.850Z,15.00
2018-12-15T02:11:12.573Z,13.95
2018-12-15T02:12:16.256Z,14.07
2018-12-15T02:13:19.862Z,13.93
2018-12-15T02:14:23.465Z,14.73
2018-12-15T02:15:27.145Z,13.58
2018-12-15T02:16:30.835Z,14.85
2018-12-15T02:17:34.693Z,14.75
2018-12-15T02:18:38.321Z,14.07
2018-12-15T02:19:42.017Z,13.78
2018-12-15T02:20:45.829Z,14.00
2018-12-15T02:21:56.260Z,15.05
2018-12-15T02:22:59.943Z,13.60
2018-12-15T02:24:03.722Z,13.28
2018-12-15T02:25:07.660Z,15.15
2018-12-15T02:26:11.309Z,15.40
2018-12-15T02:27:15.002Z,13.80
2018-12-15T02:28:18.575Z,13.38
2018-12-15T02:29:22.220Z,13.75
2018-12-15T02:30:25.856Z,13.80
2018-12-15T02:31:29.514Z,14.23
2018-12-15T02:32:33.159Z,13.48
2018-12-15T02:33:36.899Z,13.65
2018-12-15T02:34:40.527Z,14.20
2018-12-15T02:35:44.142Z,14.23
2018-12-15T02:36:47.779Z,13.48
2018-12-15T02:37:51.381Z,14.05
2018-12-15T02:38:55.109Z,13.90
2018-12-15T02:39:58.756Z,13.32
2018-12-15T02:41:02.450Z,14.58
2018-12-15T02:42:06.137Z,14.03
2018-12-15T02:43:09.850Z,13.68
2018-12-15T02:44:13.456Z,13.68
2018-12-15T02:45:17.142Z,14.10
2018-12-15T02:46:20.752Z,13.65
2018-12-15T02:47:24.465Z,14.75
2018-12-15T02:48:28.069Z,13.98
2018-12-15T02:49:31.809Z,14.33
2018-12-15T02:50:35.492Z,13.90
2018-12-15T02:51:39.423Z,14.50
2018-12-15T02:52:43.101Z,13.88
2018-12-15T02:53:46.944Z,14.85
2018-12-15T02:54:50.617Z,15.18
2018-12-15T02:55:54.290Z,15.25
2018-12-15T02:56:57.921Z,14.25
2018-12-15T02:58:01.534Z,14.30
2018-12-15T02:59:05.272Z,14.03
2018-12-15T03:00:09.100Z,15.10
2018-12-15T03:01:12.868Z,14.95
2018-12-15T03:02:16.658Z,14.87
2018-12-15T03:03:20.251Z,14.13
2018-12-15T03:04:23.969Z,15.00
2018-12-15T03:05:27.662Z,14.65
2018-12-15T03:06:31.340Z,15.03
2018-12-15T03:07:34.956Z,14.80
2018-12-15T03:08:38.629Z,14.33
2018-12-15T03:09:42.309Z,14.90
2018-12-15T03:10:46.066Z,15.55
2018-12-15T03:11:49.767Z,15.18
2018-12-15T03:12:53.375Z,16.00
2018-12-15T03:13:57.044Z,16.15
2018-12-15T03:15:00.658Z,16.25
2018-12-15T03:16:04.343Z,16.10
2018-12-15T03:17:08.310Z,15.93
2018-12-15T03:18:12.010Z,15.43
2018-12-15T03:19:15.625Z,15.70
2018-12-15T03:20:19.330Z,15.93
2018-12-15T03:21:22.982Z,14.70
2018-12-15T03:22:26.588Z,14.68
2018-12-15T03:23:30.361Z,15.75
2018-12-15T03:24:33.973Z,14.78
2018-12-15T03:25:37.594Z,15.83
2018-12-15T03:26:41.203Z,15.80
2018-12-15T03:27:44.819Z,15.63
2018-12-15T03:28:48.433Z,15.15
2018-12-15T03:29:52.060Z,15.68
2018-12-15T03:30:55.682Z,14.95
2018-12-15T03:31:59.372Z,15.83
2018-12-15T03:33:03.006Z,14.73
2018-12-15T03:34:06.685Z,16.87
2018-12-15T03:36:20.432Z,15.85
2018-12-15T03:37:24.128Z,16.80
2018-12-15T03:38:27.828Z,15.95
2018-12-15T03:39:31.429Z,16.55
2018-12-15T03:40:35.192Z,16.05
2018-12-15T03:41:38.873Z,15.40
2018-12-15T03:42:42.522Z,16.55
2018-12-15T03:43:46.144Z,16.52
2018-12-15T03:44:49.833Z,17.20
2018-12-15T03:45:53.487Z,16.25
2018-12-15T03:46:57.143Z,16.95
2018-12-15T03:48:00.765Z,18.52
2018-12-15T03:49:04.456Z,16.73
2018-12-15T03:50:08.290Z,16.95
2018-12-15T03:51:11.969Z,16.70
2018-12-15T03:52:15.581Z,18.45
2018-12-15T03:53:19.273Z,17.85
2018-12-15T03:54:22.899Z,17.40
2018-12-15T03:55:26.595Z,17.60
2018-12-15T03:56:30.279Z,16.85
2018-12-15T03:57:33.894Z,19.05
2018-12-15T03:58:37.510Z,18.05
2018-12-15T03:59:41.289Z,18.05
2018-12-15T04:00:44.976Z,18.23
2018-12-15T04:01:48.674Z,19.35
2018-12-15T04:02:52.327Z,18.62
2018-12-15T04:03:55.956Z,18.65
2018-12-15T04:04:59.636Z,17.87
2018-12-15T04:06:03.415Z,19.82
2018-12-15T04:07:07.034Z,18.42
2018-12-15T04:08:10.800Z,19.35
2018-12-15T04:09:14.415Z,20.25
2018-12-15T04:10:18.072Z,17.95
2018-12-15T04:11:21.672Z,18.10
2018-12-15T04:12:25.426Z,17.65
2018-12-15T04:13:29.120Z,18.82
2018-12-15T04:14:32.749Z,19.65
2018-12-15T04:15:36.489Z,18.15
2018-12-15T04:16:40.121Z,18.12
2018-12-15T04:17:43.730Z,18.48
2018-12-15T04:18:47.356Z,19.07
2018-12-15T04:19:51.058Z,18.10
2018-12-15T04:20:54.663Z,19.77
2018-12-15T04:22:09.896Z,19.07
2018-12-15T04:23:13.544Z,19.15
2018-12-15T04:24:17.157Z,19.75
2018-12-15T04:25:20.842Z,19.25
2018-12-15T04:26:24.524Z,19.95
2018-12-15T04:27:28.143Z,19.65
2018-12-15T04:28:31.850Z,19.90
2018-12-15T04:29:35.439Z,19.00
2018-12-15T04:30:39.214Z,19.20
2018-12-15T04:31:42.822Z,18.87
2018-12-15T04:32:46.519Z,19.52
2018-12-15T04:33:50.218Z,20.32
2018-12-15T04:34:53.832Z,19.62
2018-12-15T04:35:59.005Z,20.20
2018-12-15T04:37:02.617Z,20.77
2018-12-15T04:38:06.217Z,22.07
2018-12-15T04:39:09.828Z,20.10
2018-12-15T04:40:13.610Z,21.02
2018-12-15T04:41:17.208Z,21.40
2018-12-15T04:42:20.961Z,21.95
2018-12-15T04:43:24.579Z,20.97
2018-12-15T04:44:28.273Z,21.12
2018-12-15T04:45:31.967Z,22.80
2018-12-15T04:46:35.576Z,21.68
2018-12-15T04:47:39.320Z,21.57
2018-12-15T04:48:43.034Z,21.80
2018-12-15T04:49:46.693Z,22.27
2018-12-15T04:50:50.420Z,22.20
2018-12-15T04:51:53.989Z,20.65
2018-12-15T04:52:57.666Z,22.27
2018-12-15T04:54:01.359Z,20.50
2018-12-15T04:55:05.402Z,21.45
2018-12-15T04:56:09.072Z,22.40
2018-12-15T04:57:12.745Z,21.10
2018-12-15T04:58:16.484Z,22.90
2018-12-15T04:59:20.162Z,22.35
2018-12-15T05:00:23.916Z,21.50
2018-12-15T05:01:27.601Z,22.93
2018-12-15T05:02:31.277Z,22.35
2018-12-15T05:03:35.026Z,21.90
2018-12-15T05:04:38.637Z,23.47
2018-12-15T05:05:42.321Z,23.15
2018-12-15T05:06:45.882Z,23.00
2018-12-15T05:07:49.604Z,22.95
2018-12-15T05:08:53.187Z,22.42
2018-12-15T05:09:56.814Z,22.13
2018-12-15T05:11:00.482Z,23.38
2018-12-15T05:12:04.170Z,22.65
2018-12-15T05:13:07.844Z,22.62
2018-12-15T05:14:11.514Z,23.40
2018-12-15T05:15:15.125Z,23.32
2018-12-15T05:16:18.733Z,22.55
2018-12-15T05:17:22.405Z,23.92
2018-12-15T05:18:26.023Z,22.85
2018-12-15T05:19:29.640Z,23.18
2018-12-15T05:20:33.245Z,22.52
2018-12-15T05:21:36.861Z,22.55
2018-12-15T05:22:40.460Z,23.87
2018-12-15T05:23:44.180Z,24.23
2018-12-15T05:24:47.945Z,23.55
2018-12-15T05:25:51.552Z,23.25
2018-12-15T05:26:55.233Z,23.47
2018-12-15T05:27:58.833Z,22.40
2018-12-15T05:29:02.506Z,23.85
2018-12-15T05:30:06.334Z,24.05
2018-12-15T05:31:09.902Z,23.20
2018-12-15T05:32:13.645Z,23.05
2018-12-15T05:33:17.266Z,23.52
2018-12-15T05:34:20.883Z,23.67
2018-12-15T05:35:24.493Z,24.32
2018-12-15T05:36:28.098Z,23.92
2018-12-15T05:37:31.701Z,23.35
2018-12-15T05:38:35.304Z,22.93
2018-12-15T05:39:38.981Z,22.80
2018-12-15T05:40:42.663Z,23.02
2018-12-15T05:41:46.281Z,24.12
2018-12-15T05:42:49.930Z,24.55
2018-12-15T05:43:53.724Z,23.40
2018-12-15T05:44:57.316Z,23.18
2018-12-15T05:46:00.952Z,23.77
2018-12-15T05:47:04.777Z,23.38
2018-12-15T05:48:08.390Z,24.47
2018-12-15T05:49:12.189Z,23.38
2018-12-15T05:50:15.845Z,24.43
2018-12-15T05:51:19.465Z,23.70
2018-12-15T05:52:23.073Z,24.60
2018-12-15T05:53:26.690Z,23.12
2018-12-15T05:54:30.345Z,23.75
2018-12-15T05:55:33.998Z,24.07
2018-12-15T05:56:37.768Z,24.23
2018-12-15T05:57:41.425Z,23.07
2018-12-15T05:58:45.116Z,24.57
2018-12-15T05:59:48.702Z,23.47
2018-12-15T06:00:52.409Z,25.12
2018-12-15T06:01:56.262Z,23.80
2018-12-15T06:02:59.962Z,24.18
2018-12-15T06:04:03.670Z,23.32
2018-12-15T06:05:07.632Z,23.83
2018-12-15T06:06:11.270Z,24.47
2018-12-15T06:07:14.884Z,23.52
2018-12-15T06:08:18.505Z,24.32
2018-12-15T06:09:22.234Z,23.45
2018-12-15T06:10:25.853Z,23.83
2018-12-15T06:11:29.518Z,24.27
2018-12-15T06:12:33.154Z,24.55
2018-12-15T06:13:36.841Z,26.15
2018-12-15T06:14:40.508Z,23.52
2018-12-15T06:15:44.356Z,24.00
2018-12-15T06:16:47.996Z,22.85
2018-12-15T06:17:51.593Z,25.00
2018-12-15T06:18:55.226Z,24.52
2018-12-15T06:19:58.832Z,23.62
2018-12-15T06:21:02.473Z,25.70
2018-12-15T06:22:06.237Z,25.27
2018-12-15T06:23:09.865Z,24.87
2018-12-15T06:24:13.484Z,25.23
2018-12-15T06:25:17.258Z,25.08
2018-12-15T06:26:20.884Z,25.20
2018-12-15T06:27:24.514Z,24.70
2018-12-15T06:28:28.207Z,25.43
2018-12-15T06:29:31.900Z,24.32
2018-12-15T06:30:35.594Z,24.75
2018-12-15T06:31:39.185Z,25.48
2018-12-15T06:32:42.805Z,26.27
2018-12-15T06:33:46.433Z,24.77
2018-12-15T06:34:50.137Z,25.10
2018-12-15T06:35:53.832Z,24.72
2018-12-15T06:36:57.534Z,23.62
2018-12-15T06:38:01.157Z,25.20
2018-12-15T06:39:07.066Z,25.57
2018-12-15T06:40:10.745Z,24.95
2018-12-15T06:41:14.377Z,24.98
2018-12-15T06:42:18.006Z,26.05
2018-12-15T06:43:21.795Z,27.95
2018-12-15T06:44:25.479Z,25.17
2018-12-15T06:45:29.236Z,27.13
2018-12-15T06:46:32.941Z,25.17
2018-12-15T06:47:36.628Z,25.97
2018-12-15T06:48:40.297Z,25.75
2018-12-15T06:49:44.048Z,27.13
2018-12-15T06:50:47.653Z,25.05
2018-12-15T06:51:51.276Z,24.82
2018-12-15T06:52:54.965Z,27.17
2018-12-15T06:53:58.573Z,26.17
2018-12-15T06:55:02.177Z,24.15
2018-12-15T06:56:05.853Z,25.85
2018-12-15T06:57:09.533Z,26.70
2018-12-15T06:58:13.225Z,26.90
2018-12-15T06:59:16.837Z,25.17
2018-12-15T07:00:20.590Z,26.00
2018-12-15T07:01:24.257Z,25.30
2018-12-15T07:02:27.933Z,24.07
2018-12-15T07:03:31.619Z,25.60
2018-12-15T07:04:35.325Z,27.50
2018-12-15T07:05:38.981Z,25.97
2018-12-15T07:06:43.201Z,25.77
2018-12-15T07:07:47.213Z,26.37
2018-12-15T07:08:50.862Z,26.00
2018-12-15T07:09:54.742Z,25.02
2018-12-15T07:10:58.466Z,26.57
2018-12-15T07:12:02.377Z,25.20
2018-12-15T07:13:06.257Z,25.95
2018-12-15T07:14:09.932Z,24.82
2018-12-15T07:15:13.658Z,27.90
2018-12-15T07:16:17.352Z,26.33
2018-12-15T07:17:20.928Z,26.07
2018-12-15T07:18:24.559Z,26.50
2018-12-15T07:19:28.197Z,25.55
2018-12-15T07:20:31.813Z,25.55
2018-12-15T07:21:35.497Z,25.20
2018-12-15T07:22:39.145Z,25.02
2018-12-15T07:23:42.869Z,28.00
2018-12-15T07:24:46.566Z,27.27
2018-12-15T07:25:50.312Z,26.35
2018-12-15T07:26:54.065Z,26.73
2018-12-15T07:27:57.674Z,26.20
2018-12-15T07:29:01.420Z,25.85
2018-12-15T07:30:05.509Z,25.90
2018-12-15T07:31:09.278Z,27.35
2018-12-15T07:32:12.973Z,26.75
2018-12-15T07:33:16.673Z,26.77
2018-12-15T07:34:20.330Z,27.52
2018-12-15T07:35:23.965Z,26.35
2018-12-15T07:36:27.579Z,26.15
2018-12-15T07:37:31.189Z,26.82
2018-12-15T07:38:34.806Z,28.57
2018-12-15T07:39:38.490Z,27.07
2018-12-15T07:40:42.064Z,27.52
2018-12-15T07:41:45.749Z,26.55
2018-12-15T07:42:49.361Z,24.72
2018-12-15T07:43:52.998Z,29.12
2018-12-15T07:44:56.644Z,26.40
2018-12-15T07:46:00.928Z,27.22
2018-12-15T07:47:04.812Z,26.50
2018-12-15T07:48:08.482Z,27.82
2018-12-15T07:49:12.121Z,25.68
2018-12-15T07:50:15.800Z,26.80
2018-12-15T07:51:19.427Z,26.73
2018-12-15T07:52:23.041Z,27.32
2018-12-15T07:53:26.669Z,26.87
2018-12-15T07:54:30.365Z,27.58
2018-12-15T07:55:34.083Z,25.95
2018-12-15T07:56:38.547Z,25.62
2018-12-15T07:57:42.344Z,25.52
2018-12-15T07:58:46.086Z,27.93
2018-12-15T07:59:49.673Z,27.10
2018-12-15T08:00:53.349Z,26.27
2018-12-15T08:01:56.984Z,27.48
2018-12-15T08:03:00.664Z,26.40
2018-12-15T08:04:04.384Z,25.72
2018-12-15T08:05:08.181Z,25.97
2018-12-15T08:06:11.857Z,25.62
2018-12-15T08:07:15.509Z,25.05
2018-12-15T08:08:19.125Z,26.02
2018-12-15T08:09:22.792Z,26.23
2018-12-15T08:10:28.452Z,26.50
2018-12-15T08:11:37.801Z,25.62
2018-12-15T08:12:42.648Z,25.92
2018-12-15T08:13:48.947Z,25.62
2018-12-15T08:14:52.610Z,26.05
2018-12-15T08:15:57.716Z,26.07
2018-12-15T08:17:01.359Z,25.40
2018-12-15T08:18:05.151Z,25.60
2018-12-15T08:19:08.817Z,26.93
2018-12-15T08:20:12.636Z,24.47
2018-12-15T08:21:16.417Z,25.80
2018-12-15T08:22:25.926Z,26.35
2018-12-15T08:23:25.724Z,25.75
2018-12-15T08:24:29.440Z,26.15
2018-12-15T08:25:33.148Z,26.57
2018-12-15T08:26:36.745Z,24.98
2018-12-15T08:27:40.360Z,24.77
2018-12-15T08:28:44.073Z,26.55
2018-12-15T08:29:47.701Z,24.95
2018-12-15T08:30:51.331Z,27.62
2018-12-15T08:31:55.020Z,25.48
2018-12-15T08:32:58.709Z,25.85
2018-12-15T08:34:02.484Z,24.98
2018-12-15T08:35:06.347Z,26.85
2018-12-15T08:36:09.981Z,27.05
2018-12-15T08:37:13.680Z,24.98
2018-12-15T08:38:17.466Z,24.57
2018-12-15T08:39:21.189Z,25.40
2018-12-15T08:40:24.804Z,25.40
2018-12-15T08:41:28.437Z,25.30
2018-12-15T08:42:32.157Z,26.17
2018-12-15T08:43:35.814Z,24.32
2018-12-15T08:44:39.445Z,25.35
2018-12-15T08:45:43.076Z,25.45
2018-12-15T08:46:46.847Z,26.12
2018-12-15T08:47:50.472Z,24.20
2018-12-15T08:48:54.122Z,26.20
2018-12-15T08:49:57.808Z,24.57
2018-12-15T08:51:01.734Z,25.55
2018-12-15T08:52:05.460Z,24.90
2018-12-15T08:53:09.086Z,25.35
2018-12-15T08:54:12.725Z,25.75
2018-12-15T08:55:16.428Z,25.30
2018-12-15T08:56:20.143Z,25.72
2018-12-15T08:57:25.428Z,23.42
2018-12-15T08:58:29.164Z,23.70
2018-12-15T08:59:32.764Z,24.12
2018-12-15T09:00:36.550Z,23.85
2018-12-15T09:01:40.140Z,25.30
2018-12-15T09:02:44.257Z,23.87
2018-12-15T09:03:48.020Z,23.45
2018-12-15T09:04:51.808Z,23.67
2018-12-15T09:05:55.519Z,22.87
2018-12-15T09:06:59.231Z,23.75
2018-12-15T09:08:02.940Z,23.00
2018-12-15T09:09:07.036Z,22.75
2018-12-15T09:10:10.833Z,23.50
2018-12-15T09:11:14.670Z,23.77
2018-12-15T09:12:18.349Z,22.80
2018-12-15T09:13:21.990Z,23.70
2018-12-15T09:14:25.701Z,22.73
2018-12-15T09:15:29.341Z,22.87
2018-12-15T09:16:33.069Z,24.25
2018-12-15T09:17:36.769Z,23.67
2018-12-15T09:18:40.453Z,24.02
2018-12-15T09:19:44.245Z,22.52
2018-12-15T09:20:47.985Z,23.60
2018-12-15T09:21:51.596Z,21.68
2018-12-15T09:22:55.301Z,22.50
2018-12-15T09:23:58.924Z,21.75
2018-12-15T09:25:02.609Z,22.60
2018-12-15T09:26:06.295Z,22.10
2018-12-15T09:27:09.886Z,22.60
2018-12-15T09:28:13.501Z,22.87
2018-12-15T09:29:17.282Z,22.32
2018-12-15T09:30:21.127Z,23.15
2018-12-15T09:31:24.771Z,22.93
2018-12-15T09:32:28.553Z,22.75
2018-12-15T09:33:32.161Z,22.85
2018-12-15T09:34:35.855Z,22.37
2018-12-15T09:35:39.673Z,22.27
2018-12-15T09:36:43.377Z,22.20
2018-12-15T09:37:46.997Z,22.45
2018-12-15T09:38:50.636Z,22.82
2018-12-15T09:39:54.464Z,22.40
2018-12-15T09:40:58.089Z,22.35
2018-12-15T09:42:01.724Z,22.87
2018-12-15T09:43:05.357Z,22.67
2018-12-15T09:44:08.979Z,22.77
2018-12-15T09:45:12.745Z,21.75
2018-12-15T09:46:16.490Z,21.70
2018-12-15T09:47:20.172Z,21.68
2018-12-15T09:48:23.946Z,22.45
2018-12-15T09:49:27.586Z,23.20
2018-12-15T09:50:31.592Z,21.97
2018-12-15T09:51:35.285Z,22.10
2018-12-15T09:52:38.988Z,21.05
2018-12-15T09:53:42.752Z,22.30
2018-12-15T09:54:46.408Z,22.50
2018-12-15T09:55:50.005Z,20.95
2018-12-15T09:56:53.794Z,21.33
2018-12-15T09:57:57.486Z,21.05
2018-12-15T09:59:01.168Z,22.58
2018-12-15T10:00:05.252Z,23.25
2018-12-15T10:01:08.976Z,21.37
2018-12-15T10:02:12.630Z,20.37
2018-12-15T10:03:21.889Z,20.50
2018-12-15T10:04:25.481Z,21.35
2018-12-15T10:05:29.245Z,22.22
2018-12-15T10:06:32.870Z,21.93
2018-12-15T10:07:36.487Z,20.77
2018-12-15T10:08:40.110Z,20.40
2018-12-15T10:09:43.733Z,22.25
2018-12-15T10:10:47.420Z,21.35
2018-12-15T10:11:51.058Z,20.95
2018-12-15T10:12:54.746Z,21.20
2018-12-15T10:13:58.380Z,20.75
2018-12-15T10:15:01.995Z,20.62
2018-12-15T10:16:05.766Z,20.05
2018-12-15T10:17:09.385Z,21.50
2018-12-15T10:18:13.068Z,20.60
2018-12-15T10:19:16.768Z,21.55
2018-12-15T10:20:20.484Z,20.20
2018-12-15T10:21:24.190Z,20.68
2018-12-15T10:22:27.937Z,19.80
2018-12-15T10:23:31.545Z,19.82
2018-12-15T10:24:35.162Z,19.48
2018-12-15T10:25:38.805Z,19.32
2018-12-15T10:26:42.495Z,20.12
2018-12-15T10:27:46.172Z,20.72
2018-12-15T10:28:49.799Z,20.80
2018-12-15T10:29:59.002Z,20.55
2018-12-15T10:31:08.116Z,19.30
2018-12-15T10:32:17.207Z,20.70
2018-12-15T10:33:20.853Z,20.52
2018-12-15T10:34:24.647Z,19.37
2018-12-15T10:35:28.340Z,20.60
2018-12-15T10:36:32.136Z,19.95
2018-12-15T10:37:35.827Z,19.57
2018-12-15T10:38:39.406Z,20.48
2018-12-15T10:39:43.038Z,21.12
2018-12-15T10:40:46.798Z,19.27
2018-12-15T10:41:50.419Z,18.90
2018-12-15T10:42:54.046Z,18.82
2018-12-15T10:43:57.777Z,19.02
2018-12-15T10:45:01.473Z,19.32
2018-12-15T10:46:05.244Z,19.52
2018-12-15T10:47:08.953Z,19.37
2018-12-15T10:48:12.637Z,19.37
2018-12-15T10:49:16.257Z,19.75
2018-12-15T10:50:20.039Z,19.23
2018-12-15T10:51:23.714Z,19.75
2018-12-15T10:52:27.482Z,18.82
2018-12-15T10:53:31.117Z,19.50
2018-12-15T10:54:34.810Z,19.67
2018-12-15T10:55:38.398Z,19.17
2018-12-15T10:56:42.107Z,20.23
2018-12-15T10:57:45.873Z,20.95
2018-12-15T10:58:49.489Z,18.70
2018-12-15T10:59:53.181Z,19.27
2018-12-15T11:00:56.873Z,19.90
2018-12-15T11:02:00.574Z,19.07
2018-12-15T11:03:04.345Z,19.12
2018-12-15T11:04:07.967Z,18.77
2018-12-15T11:05:11.629Z,19.48
2018-12-15T11:06:15.332Z,19.27
2018-12-15T11:07:18.969Z,18.82
2018-12-15T11:08:22.595Z,18.60
2018-12-15T11:09:26.304Z,17.95
2018-12-15T11:10:29.895Z,19.12
2018-12-15T11:11:33.517Z,18.67
2018-12-15T11:12:37.214Z,17.73
2018-12-15T11:13:40.907Z,18.70
2018-12-15T11:14:44.601Z,18.92
2018-12-15T11:15:48.299Z,18.80
2018-12-15T11:16:51.925Z,18.12
2018-12-15T11:17:55.549Z,18.42
2018-12-15T11:18:59.164Z,17.35
2018-12-15T11:20:02.976Z,19.17
2018-12-15T11:21:06.747Z,18.12
2018-12-15T11:22:10.440Z,18.62
2018-12-15T11:23:14.088Z,17.80
2018-12-15T11:24:17.712Z,18.05
2018-12-15T11:25:21.405Z,18.17
2018-12-15T11:26:25.080Z,18.30
2018-12-15T11:27:28.774Z,17.90
2018-12-15T11:28:32.495Z,18.02
2018-12-15T11:29:36.158Z,17.70
2018-12-15T11:30:39.753Z,17.60
2018-12-15T11:31:43.445Z,19.25
2018-12-15T11:32:47.070Z,17.73
2018-12-15T11:33:50.821Z,17.50
2018-12-15T11:34:54.521Z,17.60
2018-12-15T11:35:58.222Z,18.20
2018-12-15T11:37:01.898Z,17.25
2018-12-15T11:38:05.588Z,16.87
2018-12-15T11:39:09.211Z,16.10
2018-12-15T11:40:12.843Z,17.60
2018-12-15T11:41:16.475Z,16.75
2018-12-15T11:42:20.266Z,16.75
2018-12-15T11:43:23.958Z,16.52
2018-12-15T11:44:27.570Z,16.20
2018-12-15T11:45:31.593Z,16.52
2018-12-15T11:46:35.192Z,16.55
2018-12-15T11:47:38.901Z,15.75
2018-12-15T11:48:42.549Z,16.62
2018-12-15T11:49:46.200Z,16.23
2018-12-15T11:50:49.885Z,16.62
2018-12-15T11:51:53.524Z,16.20
2018-12-15T11:52:57.231Z,15.80
2018-12-15T11:54:00.879Z,16.30
2018-12-15T11:55:04.757Z,15.70
2018-12-15T11:56:08.532Z,16.02
2018-12-15T11:57:12.182Z,15.70
2018-12-15T11:58:16.482Z,17.02
2018-12-15T11:59:20.190Z,15.48
2018-12-15T12:00:23.849Z,15.40
2018-12-15T12:01:27.556Z,15.88
2018-12-15T12:02:31.991Z,15.58
2018-12-15T12:03:35.732Z,14.55
2018-12-15T12:04:39.357Z,17.23
2018-12-15T12:05:43.062Z,15.83
2018-12-15T12:06:46.753Z,15.32
2018-12-15T12:07:50.993Z,15.38
2018-12-15T12:08:54.722Z,14.83
2018-12-15T12:09:58.332Z,15.05
2018-12-15T12:11:02.098Z,16.23
2018-12-15T12:12:05.806Z,16.05
2018-12-15T12:13:09.522Z,15.30
2018-12-15T12:14:13.147Z,15.00
2018-12-15T12:15:16.777Z,15.55
2018-12-15T12:16:20.493Z,15.63
2018-12-15T12:17:24.129Z,16.15
2018-12-15T12:18:27.753Z,14.68
2018-12-15T12:19:31.384Z,15.38
2018-12-15T12:20:35.014Z,14.70
2018-12-15T12:21:39.353Z,15.05
2018-12-15T12:22:43.665Z,14.58
2018-12-15T12:23:47.461Z,14.20
2018-12-15T12:24:51.153Z,13.78
2018-12-15T12:25:54.815Z,14.00
2018-12-15T12:26:58.429Z,14.33
2018-12-15T12:28:02.378Z,13.60
2018-12-15T12:29:06.077Z,13.32
2018-12-15T12:30:09.893Z,13.05
2018-12-15T12:31:13.516Z,13.28
2018-12-15T12:32:17.212Z,12.58
2018-12-15T12:33:20.899Z,12.55
2018-12-15T12:34:24.485Z,13.28
2018-12-15T12:35:28.170Z,12.82
2018-12-15T12:36:31.857Z,13.00
2018-12-15T12:37:35.561Z,12.30
2018-12-15T12:38:39.268Z,11.88
2018-12-15T12:39:42.977Z,12.10
2018-12-15T12:40:46.736Z,11.28
2018-12-15T12:41:50.438Z,11.40
2018-12-15T12:42:54.236Z,11.95
2018-12-15T12:43:57.928Z,11.12
2018-12-15T12:45:01.510Z,11.18
2018-12-15T12:46:05.301Z,10.55
2018-12-15T12:47:08.913Z,10.82
2018-12-15T12:48:12.609Z,11.38
2018-12-15T12:49:16.248Z,11.43
2018-12-15T12:50:19.965Z,10.40
2018-12-15T12:51:23.657Z,11.73
2018-12-15T12:52:27.273Z,10.80
2018-12-15T12:53:31.041Z,10.35
2018-12-15T12:54:34.741Z,10.80
2018-12-15T12:55:38.437Z,11.18
2018-12-15T12:56:42.129Z,9.08
2018-12-15T12:57:45.855Z,8.83
2018-12-15T12:58:49.469Z,8.40
2018-12-15T12:59:53.092Z,8.53
2018-12-15T13:00:59.856Z,8.00
2018-12-15T13:02:03.769Z,7.92
2018-12-15T13:03:07.390Z,7.37
2018-12-15T13:04:11.102Z,7.30
2018-12-15T13:05:14.725Z,7.30
2018-12-15T13:06:18.408Z,7.40
2018-12-15T13:07:22.100Z,7.45
2018-12-15T13:08:25.808Z,7.28
2018-12-15T13:09:29.492Z,7.78
2018-12-15T13:10:33.189Z,6.95
2018-12-15T13:11:37.012Z,7.22
2018-12-15T13:12:40.703Z,7.30
2018-12-15T13:13:44.365Z,6.80
2018-12-15T13:14:48.073Z,7.10
2018-12-15T13:15:51.764Z,7.00
2018-12-15T13:16:55.623Z,7.30
2018-12-15T13:17:59.245Z,7.47
2018-12-15T13:19:03.012Z,6.95
2018-12-15T13:20:06.862Z,7.30
2018-12-15T13:21:10.468Z,6.22
2018-12-15T13:22:14.157Z,7.00
2018-12-15T13:23:17.838Z,7.30
2018-12-15T13:24:21.563Z,6.33
2018-12-15T13:25:25.201Z,6.95
2018-12-15T13:26:28.906Z,7.45
2018-12-15T13:27:32.711Z,6.53
2018-12-15T13:28:36.288Z,6.70
2018-12-15T13:29:39.991Z,6.87
2018-12-15T13:30:43.685Z,7.28
2018-12-15T13:31:47.380Z,6.90
2018-12-15T13:32:51.140Z,6.67
2018-12-15T13:33:54.770Z,6.90
2018-12-15T13:34:58.612Z,6.67
2018-12-15T13:36:02.436Z,7.30
2018-12-15T13:37:06.125Z,6.75
2018-12-15T13:38:09.820Z,6.45
2018-12-15T13:39:13.529Z,7.03
2018-12-15T13:40:17.233Z,7.12
2018-12-15T13:41:20.921Z,6.37
2018-12-15T13:42:24.610Z,7.25
2018-12-15T13:43:28.395Z,7.58
2018-12-15T13:44:32.029Z,6.50